sensor_id;sensor_type;location;lat;lon;timestamp;P1;durP1;ratioP1;P2;durP2;ratioP2
10497;SDS011;5296;51.060;13.750;2022-08-19T00:03:41;12.70;;;11.50;;
10497;SDS011;5296;51.060;13.750;2022-08-19T00:08:43;11.05;;;10.05;;
10497;SDS011;5296;51.060;13.750;2022-08-19T00:13:45;11.02;;;10.13;;
10497;SDS011;5296;51.060;13.750;2022-08-19T00:18:49;10.70;;;9.80;;
10497;SDS011;5296;51.060;13.750;2022-08-19T00:23:51;11.07;;;9.98;;
10497;SDS011;5296;51.060;13.750;2022-08-19T00:28:53;11.75;;;10.65;;
10497;SDS011;5296;51.060;13.750;2022-08-19T00:33:55;11.98;;;10.90;;
10497;SDS011;5296;51.060;13.750;2022-08-19T00:38:57;11.88;;;10.77;;
10497;SDS011;5296;51.060;13.750;2022-08-19T00:44:01;11.73;;;10.77;;
10497;SDS011;5296;51.060;13.750;2022-08-19T00:49:09;12.60;;;11.50;;
10497;SDS011;5296;51.060;13.750;2022-08-19T00:54:16;11.85;;;10.95;;
10497;SDS011;5296;51.060;13.750;2022-08-19T00:59:18;11.80;;;10.90;;
10497;SDS011;5296;51.060;13.750;2022-08-19T01:04:40;11.90;;;11.00;;
10497;SDS011;5296;51.060;13.750;2022-08-19T01:09:42;11.68;;;10.65;;
10497;SDS011;5296;51.060;13.750;2022-08-19T01:14:44;13.10;;;12.00;;
10497;SDS011;5296;51.060;13.750;2022-08-19T01:19:46;11.90;;;10.90;;
10497;SDS011;5296;51.060;13.750;2022-08-19T01:24:49;12.73;;;11.63;;
10497;SDS011;5296;51.060;13.750;2022-08-19T01:29:52;13.02;;;11.82;;
10497;SDS011;5296;51.060;13.750;2022-08-19T01:34:53;13.25;;;12.07;;
10497;SDS011;5296;51.060;13.750;2022-08-19T01:39:55;12.60;;;11.40;;
10497;SDS011;5296;51.060;13.750;2022-08-19T01:44:57;12.90;;;11.80;;
10497;SDS011;5296;51.060;13.750;2022-08-19T01:49:58;13.45;;;12.20;;
10497;SDS011;5296;51.060;13.750;2022-08-19T01:55:00;12.32;;;11.32;;
10497;SDS011;5296;51.060;13.750;2022-08-19T02:00:04;12.52;;;11.32;;
10497;SDS011;5296;51.060;13.750;2022-08-19T02:05:11;14.05;;;12.80;;
10497;SDS011;5296;51.060;13.750;2022-08-19T02:10:15;14.85;;;13.55;;
10497;SDS011;5296;51.060;13.750;2022-08-19T02:15:21;12.75;;;11.60;;
10497;SDS011;5296;51.060;13.750;2022-08-19T02:20:23;13.10;;;11.90;;
10497;SDS011;5296;51.060;13.750;2022-08-19T02:25:25;12.38;;;11.27;;
10497;SDS011;5296;51.060;13.750;2022-08-19T02:30:26;12.95;;;11.85;;
10497;SDS011;5296;51.060;13.750;2022-08-19T02:35:28;12.30;;;11.30;;
10497;SDS011;5296;51.060;13.750;2022-08-19T02:40:30;13.40;;;12.10;;
10497;SDS011;5296;51.060;13.750;2022-08-19T02:45:36;12.90;;;11.80;;
10497;SDS011;5296;51.060;13.750;2022-08-19T02:50:41;12.75;;;11.73;;
10497;SDS011;5296;51.060;13.750;2022-08-19T02:55:53;14.65;;;13.20;;
10497;SDS011;5296;51.060;13.750;2022-08-19T03:00:55;13.63;;;12.32;;
10497;SDS011;5296;51.060;13.750;2022-08-19T03:06:12;14.07;;;12.77;;
10497;SDS011;5296;51.060;13.750;2022-08-19T03:11:16;13.45;;;12.10;;
10497;SDS011;5296;51.060;13.750;2022-08-19T03:16:18;13.25;;;12.15;;
10497;SDS011;5296;51.060;13.750;2022-08-19T03:21:22;14.43;;;13.07;;
10497;SDS011;5296;51.060;13.750;2022-08-19T03:26:25;13.50;;;12.20;;
10497;SDS011;5296;51.060;13.750;2022-08-19T03:31:27;13.25;;;12.05;;
10497;SDS011;5296;51.060;13.750;2022-08-19T03:36:48;14.40;;;13.00;;
10497;SDS011;5296;51.060;13.750;2022-08-19T03:41:50;14.77;;;13.48;;
10497;SDS011;5296;51.060;13.750;2022-08-19T03:47:13;14.85;;;13.65;;
10497;SDS011;5296;51.060;13.750;2022-08-19T03:52:18;15.95;;;14.55;;
10497;SDS011;5296;51.060;13.750;2022-08-19T03:57:19;14.93;;;13.73;;
10497;SDS011;5296;51.060;13.750;2022-08-19T04:02:25;14.65;;;13.25;;
10497;SDS011;5296;51.060;13.750;2022-08-19T04:07:26;15.07;;;13.77;;
10497;SDS011;5296;51.060;13.750;2022-08-19T04:12:28;14.82;;;13.43;;
10497;SDS011;5296;51.060;13.750;2022-08-19T04:17:30;14.80;;;13.50;;
10497;SDS011;5296;51.060;13.750;2022-08-19T04:22:31;13.98;;;12.55;;
10497;SDS011;5296;51.060;13.750;2022-08-19T04:27:33;13.18;;;12.05;;
10497;SDS011;5296;51.060;13.750;2022-08-19T04:32:35;15.52;;;14.13;;
10497;SDS011;5296;51.060;13.750;2022-08-19T04:37:36;16.38;;;13.73;;
10497;SDS011;5296;51.060;13.750;2022-08-19T04:42:39;15.55;;;14.00;;
10497;SDS011;5296;51.060;13.750;2022-08-19T04:47:41;15.30;;;13.75;;
10497;SDS011;5296;51.060;13.750;2022-08-19T04:52:58;16.20;;;14.60;;
10497;SDS011;5296;51.060;13.750;2022-08-19T04:58:00;16.60;;;14.98;;
10497;SDS011;5296;51.060;13.750;2022-08-19T05:03:03;15.13;;;13.82;;
10497;SDS011;5296;51.060;13.750;2022-08-19T05:08:08;14.32;;;13.02;;
10497;SDS011;5296;51.060;13.750;2022-08-19T05:13:11;15.25;;;13.65;;
10497;SDS011;5296;51.060;13.750;2022-08-19T05:18:13;14.43;;;13.07;;
10497;SDS011;5296;51.060;13.750;2022-08-19T05:23:33;15.52;;;14.32;;
10497;SDS011;5296;51.060;13.750;2022-08-19T05:28:34;17.02;;;15.73;;
10497;SDS011;5296;51.060;13.750;2022-08-19T05:33:36;16.48;;;15.27;;
10497;SDS011;5296;51.060;13.750;2022-08-19T05:38:38;16.98;;;15.43;;
10497;SDS011;5296;51.060;13.750;2022-08-19T05:43:40;16.45;;;14.88;;
10497;SDS011;5296;51.060;13.750;2022-08-19T05:48:41;15.65;;;14.18;;
10497;SDS011;5296;51.060;13.750;2022-08-19T05:53:43;15.25;;;13.75;;
10497;SDS011;5296;51.060;13.750;2022-08-19T05:58:46;14.23;;;12.82;;
10497;SDS011;5296;51.060;13.750;2022-08-19T06:03:48;14.57;;;13.18;;
10497;SDS011;5296;51.060;13.750;2022-08-19T06:08:50;13.52;;;12.32;;
10497;SDS011;5296;51.060;13.750;2022-08-19T06:13:52;12.55;;;11.45;;
10497;SDS011;5296;51.060;13.750;2022-08-19T06:19:02;11.55;;;10.38;;
10497;SDS011;5296;51.060;13.750;2022-08-19T06:24:05;9.75;;;8.88;;
10497;SDS011;5296;51.060;13.750;2022-08-19T06:29:09;11.23;;;9.18;;
10497;SDS011;5296;51.060;13.750;2022-08-19T06:34:24;9.48;;;8.50;;
10497;SDS011;5296;51.060;13.750;2022-08-19T06:39:29;9.52;;;8.43;;
10497;SDS011;5296;51.060;13.750;2022-08-19T06:44:33;9.75;;;8.77;;
10497;SDS011;5296;51.060;13.750;2022-08-19T06:49:43;10.60;;;9.55;;
10497;SDS011;5296;51.060;13.750;2022-08-19T06:54:45;10.73;;;9.70;;
10497;SDS011;5296;51.060;13.750;2022-08-19T06:59:57;10.65;;;9.73;;
10497;SDS011;5296;51.060;13.750;2022-08-19T07:04:58;12.00;;;10.90;;
10497;SDS011;5296;51.060;13.750;2022-08-19T07:10:01;12.20;;;11.00;;
10497;SDS011;5296;51.060;13.750;2022-08-19T07:15:06;12.80;;;11.30;;
10497;SDS011;5296;51.060;13.750;2022-08-19T07:20:10;11.93;;;10.68;;
10497;SDS011;5296;51.060;13.750;2022-08-19T07:25:12;11.27;;;10.27;;
10497;SDS011;5296;51.060;13.750;2022-08-19T07:30:14;12.55;;;11.18;;
10497;SDS011;5296;51.060;13.750;2022-08-19T07:35:16;12.85;;;11.63;;
10497;SDS011;5296;51.060;13.750;2022-08-19T07:40:20;13.10;;;12.00;;
10497;SDS011;5296;51.060;13.750;2022-08-19T07:45:22;13.82;;;12.35;;
10497;SDS011;5296;51.060;13.750;2022-08-19T07:50:23;12.77;;;11.57;;
10497;SDS011;5296;51.060;13.750;2022-08-19T07:55:25;12.43;;;11.32;;
10497;SDS011;5296;51.060;13.750;2022-08-19T08:00:44;13.32;;;12.00;;
10497;SDS011;5296;51.060;13.750;2022-08-19T08:05:46;14.18;;;12.80;;
10497;SDS011;5296;51.060;13.750;2022-08-19T08:11:07;13.90;;;12.50;;
10497;SDS011;5296;51.060;13.750;2022-08-19T08:16:09;15.13;;;13.40;;
10497;SDS011;5296;51.060;13.750;2022-08-19T08:21:14;14.27;;;12.95;;
10497;SDS011;5296;51.060;13.750;2022-08-19T08:26:16;13.05;;;11.75;;
10497;SDS011;5296;51.060;13.750;2022-08-19T08:31:19;13.73;;;12.43;;
10497;SDS011;5296;51.060;13.750;2022-08-19T08:36:21;12.38;;;11.13;;
10497;SDS011;5296;51.060;13.750;2022-08-19T08:42:12;10.90;;;10.07;;
10497;SDS011;5296;51.060;13.750;2022-08-19T08:46:54;11.10;;;10.10;;
10497;SDS011;5296;51.060;13.750;2022-08-19T08:52:11;10.40;;;9.50;;
10497;SDS011;5296;51.060;13.750;2022-08-19T08:57:38;10.20;;;9.30;;
10497;SDS011;5296;51.060;13.750;2022-08-19T09:03:01;9.52;;;8.63;;
10497;SDS011;5296;51.060;13.750;2022-08-19T09:08:38;9.38;;;8.65;;
10497;SDS011;5296;51.060;13.750;2022-08-19T09:19:02;11.13;;;10.05;;
10497;SDS011;5296;51.060;13.750;2022-08-19T09:24:06;12.15;;;11.07;;
10497;SDS011;5296;51.060;13.750;2022-08-19T09:29:08;12.65;;;11.38;;
10497;SDS011;5296;51.060;13.750;2022-08-19T09:34:10;14.60;;;11.43;;
10497;SDS011;5296;51.060;13.750;2022-08-19T09:39:22;12.68;;;11.50;;
10497;SDS011;5296;51.060;13.750;2022-08-19T09:44:23;11.82;;;10.73;;
10497;SDS011;5296;51.060;13.750;2022-08-19T09:49:27;12.82;;;11.63;;
10497;SDS011;5296;51.060;13.750;2022-08-19T09:54:29;13.68;;;12.45;;
10497;SDS011;5296;51.060;13.750;2022-08-19T09:59:30;12.63;;;11.38;;
10497;SDS011;5296;51.060;13.750;2022-08-19T10:04:33;12.25;;;11.07;;
10497;SDS011;5296;51.060;13.750;2022-08-19T10:09:54;11.10;;;10.02;;
10497;SDS011;5296;51.060;13.750;2022-08-19T10:14:56;10.85;;;9.75;;
10497;SDS011;5296;51.060;13.750;2022-08-19T10:19:57;9.82;;;8.60;;
10497;SDS011;5296;51.060;13.750;2022-08-19T10:24:59;9.40;;;8.07;;
10497;SDS011;5296;51.060;13.750;2022-08-19T10:30:02;8.73;;;7.93;;
10497;SDS011;5296;51.060;13.750;2022-08-19T10:35:10;8.60;;;7.93;;
10497;SDS011;5296;51.060;13.750;2022-08-19T10:40:16;8.48;;;7.68;;
10497;SDS011;5296;51.060;13.750;2022-08-19T10:45:17;8.40;;;7.70;;
10497;SDS011;5296;51.060;13.750;2022-08-19T10:50:19;8.23;;;7.63;;
10497;SDS011;5296;51.060;13.750;2022-08-19T10:55:56;10.20;;;7.85;;
10497;SDS011;5296;51.060;13.750;2022-08-19T11:01:16;8.15;;;7.43;;
10497;SDS011;5296;51.060;13.750;2022-08-19T11:06:18;9.38;;;6.60;;
10497;SDS011;5296;51.060;13.750;2022-08-19T11:11:21;6.68;;;6.18;;
10497;SDS011;5296;51.060;13.750;2022-08-19T11:16:24;10.55;;;7.15;;
10497;SDS011;5296;51.060;13.750;2022-08-19T11:21:51;7.55;;;6.95;;
10497;SDS011;5296;51.060;13.750;2022-08-19T11:26:50;7.00;;;6.32;;
10497;SDS011;5296;51.060;13.750;2022-08-19T11:31:53;9.32;;;8.48;;
10497;SDS011;5296;51.060;13.750;2022-08-19T11:36:56;10.05;;;9.25;;
10497;SDS011;5296;51.060;13.750;2022-08-19T11:42:01;9.55;;;8.73;;
10497;SDS011;5296;51.060;13.750;2022-08-19T11:47:25;10.10;;;9.20;;
10497;SDS011;5296;51.060;13.750;2022-08-19T11:52:27;9.07;;;8.27;;
10497;SDS011;5296;51.060;13.750;2022-08-19T11:57:31;10.20;;;9.40;;
10497;SDS011;5296;51.060;13.750;2022-08-19T12:02:33;10.52;;;9.63;;
10497;SDS011;5296;51.060;13.750;2022-08-19T12:07:35;11.35;;;10.10;;
10497;SDS011;5296;51.060;13.750;2022-08-19T12:12:37;12.68;;;11.45;;
10497;SDS011;5296;51.060;13.750;2022-08-19T12:17:43;14.35;;;13.13;;
10497;SDS011;5296;51.060;13.750;2022-08-19T12:22:45;14.80;;;13.43;;
10497;SDS011;5296;51.060;13.750;2022-08-19T12:27:47;16.05;;;14.25;;
10497;SDS011;5296;51.060;13.750;2022-08-19T12:32:57;16.38;;;14.77;;
10497;SDS011;5296;51.060;13.750;2022-08-19T12:37:59;15.98;;;14.55;;
10497;SDS011;5296;51.060;13.750;2022-08-19T12:43:03;16.63;;;15.05;;
10497;SDS011;5296;51.060;13.750;2022-08-19T12:48:08;15.55;;;14.00;;
10497;SDS011;5296;51.060;13.750;2022-08-19T12:53:30;19.38;;;17.75;;
10497;SDS011;5296;51.060;13.750;2022-08-19T12:58:31;17.35;;;15.82;;
10497;SDS011;5296;51.060;13.750;2022-08-19T13:03:35;16.95;;;15.48;;
10497;SDS011;5296;51.060;13.750;2022-08-19T13:08:41;16.48;;;15.07;;
10497;SDS011;5296;51.060;13.750;2022-08-19T13:13:47;14.55;;;13.35;;
10497;SDS011;5296;51.060;13.750;2022-08-19T13:18:51;15.48;;;13.73;;
10497;SDS011;5296;51.060;13.750;2022-08-19T13:23:53;16.08;;;14.48;;
10497;SDS011;5296;51.060;13.750;2022-08-19T13:28:55;16.45;;;15.02;;
10497;SDS011;5296;51.060;13.750;2022-08-19T13:34:16;15.85;;;14.40;;
10497;SDS011;5296;51.060;13.750;2022-08-19T13:39:20;18.67;;;17.08;;
10497;SDS011;5296;51.060;13.750;2022-08-19T13:44:24;15.70;;;14.30;;
10497;SDS011;5296;51.060;13.750;2022-08-19T13:49:27;15.52;;;14.02;;
10497;SDS011;5296;51.060;13.750;2022-08-19T13:54:32;16.40;;;14.90;;
10497;SDS011;5296;51.060;13.750;2022-08-19T13:59:33;16.48;;;14.95;;
10497;SDS011;5296;51.060;13.750;2022-08-19T14:04:35;17.40;;;15.80;;
10497;SDS011;5296;51.060;13.750;2022-08-19T14:09:38;18.83;;;17.02;;
10497;SDS011;5296;51.060;13.750;2022-08-19T14:14:40;19.42;;;16.45;;
10497;SDS011;5296;51.060;13.750;2022-08-19T14:19:42;19.58;;;17.67;;
10497;SDS011;5296;51.060;13.750;2022-08-19T14:24:48;19.42;;;17.73;;
10497;SDS011;5296;51.060;13.750;2022-08-19T14:29:51;18.15;;;16.55;;
10497;SDS011;5296;51.060;13.750;2022-08-19T14:34:53;21.92;;;19.67;;
10497;SDS011;5296;51.060;13.750;2022-08-19T14:39:55;20.92;;;18.98;;
10497;SDS011;5296;51.060;13.750;2022-08-19T14:44:58;21.95;;;19.67;;
10497;SDS011;5296;51.060;13.750;2022-08-19T14:50:00;22.58;;;20.48;;
10497;SDS011;5296;51.060;13.750;2022-08-19T14:55:05;21.27;;;19.13;;
10497;SDS011;5296;51.060;13.750;2022-08-19T15:00:11;22.40;;;20.05;;
10497;SDS011;5296;51.060;13.750;2022-08-19T15:05:16;22.73;;;20.42;;
10497;SDS011;5296;51.060;13.750;2022-08-19T15:10:18;21.40;;;19.38;;
10497;SDS011;5296;51.060;13.750;2022-08-19T15:15:20;21.90;;;19.80;;
10497;SDS011;5296;51.060;13.750;2022-08-19T15:20:23;21.52;;;19.48;;
10497;SDS011;5296;51.060;13.750;2022-08-19T15:25:25;22.50;;;20.42;;
10497;SDS011;5296;51.060;13.750;2022-08-19T15:30:28;22.27;;;20.17;;
10497;SDS011;5296;51.060;13.750;2022-08-19T15:35:30;22.17;;;20.02;;
10497;SDS011;5296;51.060;13.750;2022-08-19T15:40:31;23.40;;;21.10;;
10497;SDS011;5296;51.060;13.750;2022-08-19T15:45:33;26.00;;;23.55;;
10497;SDS011;5296;51.060;13.750;2022-08-19T15:50:34;22.80;;;20.50;;
10497;SDS011;5296;51.060;13.750;2022-08-19T15:55:40;21.80;;;19.63;;
10497;SDS011;5296;51.060;13.750;2022-08-19T16:00:44;21.55;;;19.45;;
10497;SDS011;5296;51.060;13.750;2022-08-19T16:06:14;21.20;;;19.23;;
10497;SDS011;5296;51.060;13.750;2022-08-19T16:11:29;22.23;;;19.98;;
10497;SDS011;5296;51.060;13.750;2022-08-19T16:16:32;21.60;;;19.38;;
10497;SDS011;5296;51.060;13.750;2022-08-19T16:21:35;23.35;;;20.02;;
10497;SDS011;5296;51.060;13.750;2022-08-19T16:26:38;20.77;;;18.67;;
10497;SDS011;5296;51.060;13.750;2022-08-19T16:31:41;19.52;;;17.55;;
10497;SDS011;5296;51.060;13.750;2022-08-19T16:36:44;18.67;;;16.98;;
10497;SDS011;5296;51.060;13.750;2022-08-19T16:41:45;18.70;;;16.75;;
10497;SDS011;5296;51.060;13.750;2022-08-19T16:46:47;18.13;;;16.52;;
10497;SDS011;5296;51.060;13.750;2022-08-19T16:51:59;16.98;;;15.38;;
10497;SDS011;5296;51.060;13.750;2022-08-19T16:57:03;18.67;;;17.08;;
10497;SDS011;5296;51.060;13.750;2022-08-19T17:02:12;17.85;;;16.25;;
10497;SDS011;5296;51.060;13.750;2022-08-19T17:07:14;18.20;;;16.30;;
10497;SDS011;5296;51.060;13.750;2022-08-19T17:12:16;17.85;;;16.15;;
10497;SDS011;5296;51.060;13.750;2022-08-19T17:17:18;17.90;;;16.20;;
10497;SDS011;5296;51.060;13.750;2022-08-19T17:22:19;17.90;;;16.23;;
10497;SDS011;5296;51.060;13.750;2022-08-19T17:27:21;16.20;;;14.70;;
10497;SDS011;5296;51.060;13.750;2022-08-19T17:32:23;15.88;;;14.48;;
10497;SDS011;5296;51.060;13.750;2022-08-19T17:37:25;16.55;;;15.10;;
10497;SDS011;5296;51.060;13.750;2022-08-19T17:42:28;14.68;;;13.32;;
10497;SDS011;5296;51.060;13.750;2022-08-19T17:47:30;15.52;;;14.13;;
10497;SDS011;5296;51.060;13.750;2022-08-19T17:52:31;13.95;;;12.75;;
10497;SDS011;5296;51.060;13.750;2022-08-19T17:57:33;14.45;;;13.07;;
10497;SDS011;5296;51.060;13.750;2022-08-19T18:02:42;15.63;;;14.05;;
10497;SDS011;5296;51.060;13.750;2022-08-19T18:07:51;13.93;;;12.63;;
10497;SDS011;5296;51.060;13.750;2022-08-19T18:12:54;15.55;;;14.07;;
10497;SDS011;5296;51.060;13.750;2022-08-19T18:17:56;14.82;;;13.52;;
10497;SDS011;5296;51.060;13.750;2022-08-19T18:22:58;15.45;;;13.93;;
10497;SDS011;5296;51.060;13.750;2022-08-19T18:28:20;15.18;;;13.73;;
10497;SDS011;5296;51.060;13.750;2022-08-19T18:33:24;16.83;;;15.23;;
10497;SDS011;5296;51.060;13.750;2022-08-19T18:38:26;17.20;;;15.65;;
10497;SDS011;5296;51.060;13.750;2022-08-19T18:43:46;15.52;;;13.95;;
10497;SDS011;5296;51.060;13.750;2022-08-19T18:49:07;16.73;;;14.90;;
10497;SDS011;5296;51.060;13.750;2022-08-19T18:54:10;19.35;;;15.25;;
10497;SDS011;5296;51.060;13.750;2022-08-19T18:59:12;17.00;;;15.50;;
10497;SDS011;5296;51.060;13.750;2022-08-19T19:04:14;16.58;;;14.98;;
10497;SDS011;5296;51.060;13.750;2022-08-19T19:09:19;16.65;;;15.13;;
10497;SDS011;5296;51.060;13.750;2022-08-19T19:14:25;17.40;;;15.52;;
10497;SDS011;5296;51.060;13.750;2022-08-19T19:19:50;17.55;;;15.80;;
10497;SDS011;5296;51.060;13.750;2022-08-19T19:24:52;20.15;;;18.35;;
10497;SDS011;5296;51.060;13.750;2022-08-19T19:29:57;19.25;;;17.45;;
10497;SDS011;5296;51.060;13.750;2022-08-19T19:35:14;17.67;;;15.95;;
10497;SDS011;5296;51.060;13.750;2022-08-19T19:40:16;20.55;;;18.63;;
10497;SDS011;5296;51.060;13.750;2022-08-19T19:45:17;21.05;;;19.05;;
10497;SDS011;5296;51.060;13.750;2022-08-19T19:50:19;20.83;;;18.92;;
10497;SDS011;5296;51.060;13.750;2022-08-19T19:55:21;20.50;;;18.70;;
10497;SDS011;5296;51.060;13.750;2022-08-19T20:00:22;22.70;;;20.50;;
10497;SDS011;5296;51.060;13.750;2022-08-19T20:05:25;21.20;;;19.17;;
10497;SDS011;5296;51.060;13.750;2022-08-19T20:10:27;20.00;;;18.10;;
10497;SDS011;5296;51.060;13.750;2022-08-19T20:15:29;22.00;;;19.80;;
10497;SDS011;5296;51.060;13.750;2022-08-19T20:20:32;19.17;;;17.38;;
10497;SDS011;5296;51.060;13.750;2022-08-19T20:25:34;19.00;;;17.20;;
10497;SDS011;5296;51.060;13.750;2022-08-19T20:30:38;19.35;;;17.55;;
10497;SDS011;5296;51.060;13.750;2022-08-19T20:35:48;19.15;;;17.42;;
10497;SDS011;5296;51.060;13.750;2022-08-19T20:40:49;19.75;;;17.95;;
10497;SDS011;5296;51.060;13.750;2022-08-19T20:45:53;20.60;;;18.60;;
10497;SDS011;5296;51.060;13.750;2022-08-19T20:50:55;18.45;;;16.75;;
10497;SDS011;5296;51.060;13.750;2022-08-19T20:55:57;18.55;;;16.75;;
10497;SDS011;5296;51.060;13.750;2022-08-19T21:01:01;18.95;;;16.90;;
10497;SDS011;5296;51.060;13.750;2022-08-19T21:06:03;16.90;;;15.30;;
10497;SDS011;5296;51.060;13.750;2022-08-19T21:11:05;18.88;;;17.02;;
10497;SDS011;5296;51.060;13.750;2022-08-19T21:16:07;17.17;;;15.48;;
10497;SDS011;5296;51.060;13.750;2022-08-19T21:21:09;16.63;;;15.02;;
10497;SDS011;5296;51.060;13.750;2022-08-19T21:26:11;16.73;;;15.23;;
10497;SDS011;5296;51.060;13.750;2022-08-19T21:31:12;17.98;;;16.23;;
10497;SDS011;5296;51.060;13.750;2022-08-19T21:36:15;16.17;;;14.55;;
10497;SDS011;5296;51.060;13.750;2022-08-19T21:41:17;17.55;;;15.75;;
10497;SDS011;5296;51.060;13.750;2022-08-19T21:46:19;17.27;;;15.15;;
10497;SDS011;5296;51.060;13.750;2022-08-19T21:51:21;16.02;;;14.40;;
10497;SDS011;5296;51.060;13.750;2022-08-19T21:56:22;17.08;;;15.32;;
10497;SDS011;5296;51.060;13.750;2022-08-19T22:01:25;16.30;;;14.80;;
10497;SDS011;5296;51.060;13.750;2022-08-19T22:06:27;15.75;;;14.35;;
10497;SDS011;5296;51.060;13.750;2022-08-19T22:11:29;17.77;;;16.08;;
10497;SDS011;5296;51.060;13.750;2022-08-19T22:16:30;17.17;;;15.57;;
10497;SDS011;5296;51.060;13.750;2022-08-19T22:21:32;18.83;;;16.40;;
10497;SDS011;5296;51.060;13.750;2022-08-19T22:26:40;16.33;;;14.65;;
10497;SDS011;5296;51.060;13.750;2022-08-19T22:31:42;17.20;;;15.52;;
10497;SDS011;5296;51.060;13.750;2022-08-19T22:36:45;18.65;;;15.25;;
10497;SDS011;5296;51.060;13.750;2022-08-19T22:41:46;16.50;;;14.90;;
10497;SDS011;5296;51.060;13.750;2022-08-19T22:46:48;16.92;;;15.18;;
10497;SDS011;5296;51.060;13.750;2022-08-19T22:51:50;16.45;;;14.82;;
10497;SDS011;5296;51.060;13.750;2022-08-19T22:57:10;16.58;;;14.93;;
10497;SDS011;5296;51.060;13.750;2022-08-19T23:07:24;16.98;;;15.48;;
10497;SDS011;5296;51.060;13.750;2022-08-19T23:12:27;16.42;;;14.85;;
10497;SDS011;5296;51.060;13.750;2022-08-19T23:17:30;18.02;;;16.23;;
10497;SDS011;5296;51.060;13.750;2022-08-19T23:22:32;17.27;;;15.57;;
10497;SDS011;5296;51.060;13.750;2022-08-19T23:27:35;19.25;;;17.45;;
10497;SDS011;5296;51.060;13.750;2022-08-19T23:32:59;19.20;;;17.30;;
10497;SDS011;5296;51.060;13.750;2022-08-19T23:38:13;18.70;;;16.80;;
10497;SDS011;5296;51.060;13.750;2022-08-19T23:43:14;17.17;;;15.48;;
10497;SDS011;5296;51.060;13.750;2022-08-19T23:48:25;19.77;;;17.83;;
10497;SDS011;5296;51.060;13.750;2022-08-19T23:53:28;21.13;;;18.92;;
10497;SDS011;5296;51.060;13.750;2022-08-19T23:58:30;19.67;;;17.77;;
